createdAt,value
2019-04-16T00:01:01.352Z,102516.89
2019-04-16T00:03:31.116Z,102510.94
2019-04-16T00:06:14.222Z,102512.88
2019-04-16T00:08:54.139Z,102513.90
2019-04-16T00:11:58.413Z,102521.80
2019-04-16T00:14:31.122Z,102518.86
2019-04-16T00:17:01.040Z,102515.49
2019-04-16T00:19:34.703Z,102516.89
2019-04-16T00:22:17.775Z,102511.63
2019-04-16T00:24:53.521Z,102508.44
2019-04-16T00:27:28.266Z,102506.38
2019-04-16T00:30:09.989Z,102504.81
2019-04-16T00:32:42.729Z,102506.35
2019-04-16T00:35:28.023Z,102505.98
2019-04-16T00:37:58.127Z,102502.35
2019-04-16T00:40:27.516Z,102499.77
2019-04-16T00:42:59.801Z,102496.84
2019-04-16T00:45:29.341Z,102496.84
2019-04-16T00:47:58.928Z,102489.15
2019-04-16T00:50:30.424Z,102487.56
2019-04-16T00:53:00.095Z,102487.77
2019-04-16T00:55:29.644Z,102494.37
2019-04-16T00:57:59.208Z,102481.46
2019-04-16T01:00:30.611Z,102473.73
2019-04-16T01:02:59.827Z,102485.42
2019-04-16T01:05:29.457Z,102481.81
2019-04-16T01:07:58.865Z,102486.16
2019-04-16T01:10:36.407Z,102486.16
2019-04-16T01:13:05.798Z,102485.28
2019-04-16T01:15:35.351Z,102489.21
2019-04-16T01:18:08.020Z,102489.21
2019-04-16T01:20:44.067Z,102472.59
2019-04-16T01:23:17.486Z,102480.96
2019-04-16T01:25:45.213Z,102477.37
2019-04-16T01:28:17.100Z,102477.37
2019-04-16T01:31:07.909Z,102480.83
2019-04-16T01:33:48.550Z,102469.91
2019-04-16T01:36:39.393Z,102469.91
2019-04-16T01:39:17.677Z,102479.50
2019-04-16T01:41:40.983Z,102478.92
2019-04-16T01:44:10.824Z,102470.72
2019-04-16T01:46:40.317Z,102475.34
2019-04-16T01:49:11.101Z,102477.66
2019-04-16T01:51:58.227Z,102477.66
2019-04-16T01:54:27.626Z,102477.41
2019-04-16T01:56:59.616Z,102471.89
2019-04-16T01:59:28.811Z,102477.09
2019-04-16T02:01:58.263Z,102474.44
2019-04-16T02:04:27.639Z,102473.87
2019-04-16T02:06:57.838Z,102475.09
2019-04-16T02:09:27.267Z,102462.05
2019-04-16T02:11:56.669Z,102462.20
2019-04-16T02:14:26.105Z,102462.20
2019-04-16T02:16:55.983Z,102470.02
2019-04-16T02:19:26.068Z,102462.08
2019-04-16T02:21:55.610Z,102461.23
2019-04-16T02:24:25.035Z,102458.11
2019-04-16T02:26:55.032Z,102456.32
2019-04-16T02:29:29.814Z,102455.75
2019-04-16T02:31:58.386Z,102451.88
2019-04-16T02:34:27.784Z,102456.05
2019-04-16T02:37:00.873Z,102448.31
2019-04-16T02:39:47.223Z,102454.07
2019-04-16T02:41:59.442Z,102450.95
2019-04-16T02:44:28.915Z,102450.95
2019-04-16T02:47:05.480Z,102453.80
2019-04-16T02:49:29.394Z,102455.34
2019-04-16T02:52:06.412Z,102447.44
2019-04-16T02:54:42.772Z,102447.44
2019-04-16T02:57:35.006Z,102444.23
2019-04-16T03:00:09.751Z,102439.27
2019-04-16T03:02:53.895Z,102431.36
2019-04-16T03:05:36.004Z,102431.36
2019-04-16T03:08:05.958Z,102437.39
2019-04-16T03:10:35.785Z,102435.60
2019-04-16T03:13:05.242Z,102427.63
2019-04-16T03:15:52.879Z,102434.95
2019-04-16T03:18:26.476Z,102434.95
2019-04-16T03:20:56.619Z,102427.16
2019-04-16T03:23:26.359Z,102422.53
2019-04-16T03:25:55.726Z,102422.53
2019-04-16T03:28:27.133Z,102409.66
2019-04-16T03:30:56.695Z,102416.41
2019-04-16T03:33:26.118Z,102422.92
2019-04-16T03:35:57.823Z,102424.14
2019-04-16T03:38:27.082Z,102415.09
2019-04-16T03:40:59.579Z,102416.41
2019-04-16T03:43:29.489Z,102422.35
2019-04-16T03:46:00.246Z,102422.35
2019-04-16T03:48:29.622Z,102422.25
2019-04-16T03:51:00.555Z,102425.83
2019-04-16T03:53:30.454Z,102425.83
2019-04-16T03:56:00.703Z,102418.24
2019-04-16T03:58:30.118Z,102418.38
2019-04-16T04:00:59.612Z,102418.23
2019-04-16T04:03:29.079Z,102417.19
2019-04-16T04:05:58.803Z,102422.98
2019-04-16T04:08:28.513Z,102422.98
2019-04-16T04:11:10.531Z,102417.78
2019-04-16T04:13:40.019Z,102422.64
2019-04-16T04:16:16.521Z,102422.64
2019-04-16T04:18:46.148Z,102406.38
2019-04-16T04:21:22.034Z,102406.38
2019-04-16T04:23:49.939Z,102421.14
2019-04-16T04:26:24.684Z,102419.92
2019-04-16T04:28:54.054Z,102424.16
2019-04-16T04:31:23.808Z,102431.20
2019-04-16T04:33:53.311Z,102435.28
2019-04-16T04:36:26.442Z,102430.84
2019-04-16T04:38:53.819Z,102431.78
2019-04-16T04:41:37.731Z,102423.95
2019-04-16T04:44:07.217Z,102422.25
2019-04-16T04:46:37.202Z,102419.23
2019-04-16T04:49:06.578Z,102417.06
2019-04-16T04:51:42.698Z,102418.28
2019-04-16T04:54:08.872Z,102422.05
2019-04-16T04:56:38.308Z,102426.06
2019-04-16T04:59:07.703Z,102419.98
2019-04-16T05:01:42.046Z,102421.86
2019-04-16T05:04:27.987Z,102429.93
2019-04-16T05:07:00.031Z,102434.81
2019-04-16T05:09:32.617Z,102428.94
2019-04-16T05:12:00.484Z,102430.95
2019-04-16T05:14:30.356Z,102430.57
2019-04-16T05:16:59.801Z,102423.31
2019-04-16T05:19:29.477Z,102426.33
2019-04-16T05:21:59.222Z,102432.74
2019-04-16T05:24:29.817Z,102425.38
2019-04-16T05:26:59.402Z,102431.22
2019-04-16T05:29:48.951Z,102425.65
2019-04-16T05:32:17.581Z,102425.84
2019-04-16T05:34:48.575Z,102420.63
2019-04-16T05:37:19.802Z,102420.63
2019-04-16T05:39:49.349Z,102418.62
2019-04-16T05:42:18.952Z,102418.62
2019-04-16T05:44:48.573Z,102424.11
2019-04-16T05:47:18.379Z,102429.67
2019-04-16T05:49:48.155Z,102430.97
2019-04-16T05:52:21.379Z,102422.97
2019-04-16T05:55:20.073Z,102421.80
2019-04-16T05:57:51.777Z,102416.85
2019-04-16T06:00:29.105Z,102417.08
2019-04-16T06:02:58.497Z,102422.28
2019-04-16T06:05:28.230Z,102411.01
2019-04-16T06:08:09.054Z,102408.30
2019-04-16T06:10:41.369Z,102415.19
2019-04-16T06:13:47.941Z,102398.00
2019-04-16T06:16:36.702Z,102413.28
2019-04-16T06:19:14.458Z,102401.09
2019-04-16T06:22:01.528Z,102407.66
2019-04-16T06:24:41.543Z,102419.11
2019-04-16T06:27:33.139Z,102417.03
2019-04-16T06:30:20.549Z,102417.89
2019-04-16T06:32:56.282Z,102413.28
2019-04-16T06:35:45.476Z,102413.28
2019-04-16T06:38:18.126Z,102429.55
2019-04-16T06:41:06.662Z,102423.97
2019-04-16T06:43:39.343Z,102432.70
2019-04-16T06:46:33.609Z,102421.53
2019-04-16T06:49:21.044Z,102421.56
2019-04-16T06:52:16.036Z,102413.85
2019-04-16T06:55:15.644Z,102413.26
2019-04-16T06:58:07.760Z,102428.61
2019-04-16T07:01:05.873Z,102420.28
2019-04-16T07:04:01.327Z,102411.99
2019-04-16T07:07:01.705Z,102414.17
2019-04-16T07:09:41.465Z,102414.41
2019-04-16T07:12:15.324Z,102421.34
2019-04-16T07:14:45.518Z,102421.20
2019-04-16T07:17:18.353Z,102414.89
2019-04-16T07:19:47.536Z,102422.15
2019-04-16T07:22:20.933Z,102423.72
2019-04-16T07:24:50.609Z,102419.95
2019-04-16T07:27:21.260Z,102420.23
2019-04-16T07:29:55.643Z,102420.20
2019-04-16T07:32:56.131Z,102424.30
2019-04-16T07:35:59.504Z,102429.13
2019-04-16T07:38:47.862Z,102415.90
2019-04-16T07:41:43.208Z,102408.88
2019-04-16T07:44:18.127Z,102416.17
2019-04-16T07:47:12.616Z,102419.44
2019-04-16T07:50:02.973Z,102420.36
2019-04-16T07:52:57.620Z,102423.02
2019-04-16T07:55:44.967Z,102429.00
2019-04-16T07:58:15.514Z,102432.87
2019-04-16T08:00:45.067Z,102425.98
2019-04-16T08:03:14.475Z,102429.00
2019-04-16T08:05:43.912Z,102418.01
2019-04-16T08:08:13.341Z,102433.84
2019-04-16T08:10:43.005Z,102437.89
2019-04-16T08:13:19.831Z,102427.50
2019-04-16T08:15:49.399Z,102428.53
2019-04-16T08:18:19.007Z,102422.92
2019-04-16T08:21:10.107Z,102443.42
2019-04-16T08:23:39.619Z,102444.81
2019-04-16T08:26:12.946Z,102438.46
2019-04-16T08:28:41.753Z,102427.95
2019-04-16T08:31:16.442Z,102442.85
2019-04-16T08:33:46.204Z,102445.73
2019-04-16T08:36:15.579Z,102412.84
2019-04-16T08:38:46.442Z,102415.84
2019-04-16T08:41:19.993Z,102435.38
2019-04-16T08:43:47.293Z,102441.38
2019-04-16T08:46:17.108Z,102428.20
2019-04-16T08:48:49.331Z,102426.21
2019-04-16T08:51:29.750Z,102439.54
2019-04-16T08:53:49.800Z,102436.30
2019-04-16T08:56:21.612Z,102429.80
2019-04-16T08:58:57.322Z,102443.69
2019-04-16T09:01:29.032Z,102443.20
2019-04-16T09:04:01.221Z,102437.64
2019-04-16T09:06:29.506Z,102442.84
2019-04-16T09:09:24.323Z,102432.81
2019-04-16T09:11:57.802Z,102428.16
2019-04-16T09:14:29.391Z,102428.30
2019-04-16T09:17:05.318Z,102430.02
2019-04-16T09:19:35.819Z,102428.39
2019-04-16T09:22:08.999Z,102420.49
2019-04-16T09:24:44.411Z,102421.39
2019-04-16T09:27:28.637Z,102452.57
2019-04-16T09:30:16.882Z,102427.39
2019-04-16T09:33:02.513Z,102427.45
2019-04-16T09:35:50.825Z,102429.02
2019-04-16T09:38:45.155Z,102436.22
2019-04-16T09:41:19.760Z,102423.48
2019-04-16T09:43:53.650Z,102433.17
2019-04-16T09:46:48.395Z,102438.42
2019-04-16T09:48:54.223Z,102431.84
2019-04-16T09:51:25.380Z,102419.23
2019-04-16T09:53:54.761Z,102438.97
2019-04-16T09:56:29.881Z,102430.95
2019-04-16T09:59:16.746Z,102437.16
2019-04-16T10:02:01.946Z,102435.11
2019-04-16T10:04:32.681Z,102426.87
2019-04-16T10:07:02.176Z,102427.62
2019-04-16T10:09:31.573Z,102427.30
2019-04-16T10:12:00.957Z,102427.98
2019-04-16T10:14:30.362Z,102431.53
2019-04-16T10:16:59.745Z,102428.21
2019-04-16T10:19:29.241Z,102426.05
2019-04-16T10:21:58.600Z,102422.89
2019-04-16T10:24:49.772Z,102424.13
2019-04-16T10:27:37.043Z,102422.09
2019-04-16T10:30:16.081Z,102409.31
2019-04-16T10:32:45.589Z,102415.03
2019-04-16T10:35:15.333Z,102420.73
2019-04-16T10:37:44.785Z,102422.25
2019-04-16T10:40:36.647Z,102414.81
2019-04-16T10:43:43.990Z,102413.42
2019-04-16T10:46:19.882Z,102408.50
2019-04-16T10:49:07.241Z,102408.76
2019-04-16T10:51:54.458Z,102404.67
2019-04-16T10:54:37.100Z,102398.06
2019-04-16T10:57:22.752Z,102403.61
2019-04-16T11:00:11.676Z,102397.90
2019-04-16T11:02:47.913Z,102404.17
2019-04-16T11:05:36.335Z,102400.67
2019-04-16T11:08:07.382Z,102397.88
2019-04-16T11:10:46.820Z,102401.77
2019-04-16T11:13:25.635Z,102407.06
2019-04-16T11:15:57.146Z,102402.28
2019-04-16T11:18:26.534Z,102395.20
2019-04-16T11:20:56.172Z,102409.37
2019-04-16T11:23:25.884Z,102398.06
2019-04-16T11:26:10.864Z,102400.08
2019-04-16T11:28:40.408Z,102377.53
2019-04-16T11:31:13.299Z,102383.80
2019-04-16T11:33:42.668Z,102380.30
2019-04-16T11:36:19.360Z,102392.08
2019-04-16T11:38:46.283Z,102383.85
2019-04-16T11:41:15.989Z,102381.66
2019-04-16T11:43:45.671Z,102388.06
2019-04-16T11:46:15.176Z,102381.35
2019-04-16T11:48:44.508Z,102379.66
2019-04-16T11:51:13.996Z,102382.02
2019-04-16T11:53:43.521Z,102359.50
2019-04-16T11:56:15.483Z,102372.29
2019-04-16T11:58:48.856Z,102372.11
2019-04-16T12:01:52.873Z,102370.61
2019-04-16T12:04:27.164Z,102366.23
2019-04-16T12:07:10.899Z,102371.95
2019-04-16T12:09:58.324Z,102369.41
2019-04-16T12:12:46.775Z,102373.25
2019-04-16T12:15:35.278Z,102370.27
2019-04-16T12:18:26.700Z,102364.05
2019-04-16T12:21:24.091Z,102366.70
2019-04-16T12:24:02.993Z,102359.64
2019-04-16T12:27:10.282Z,102369.90
2019-04-16T12:29:59.059Z,102355.45
2019-04-16T12:32:53.484Z,102346.70
2019-04-16T12:35:54.370Z,102353.13
2019-04-16T12:38:27.519Z,102351.09
2019-04-16T12:41:14.878Z,102356.13
2019-04-16T12:43:50.940Z,102355.47
2019-04-16T12:46:41.412Z,102358.16
2019-04-16T12:49:33.123Z,102339.00
2019-04-16T12:52:22.907Z,102346.90
2019-04-16T12:55:14.030Z,102347.06
2019-04-16T12:58:04.876Z,102336.31
2019-04-16T13:00:44.296Z,102337.84
2019-04-16T13:03:20.985Z,102339.50
2019-04-16T13:06:04.968Z,102343.23
2019-04-16T13:08:53.630Z,102339.81
2019-04-16T13:11:35.206Z,102340.28
2019-04-16T13:14:23.106Z,102337.04
2019-04-16T13:17:28.050Z,102338.83
2019-04-16T13:20:13.946Z,102346.74
2019-04-16T13:22:47.104Z,102346.11
2019-04-16T13:25:22.782Z,102343.09
2019-04-16T13:27:52.529Z,102341.56
2019-04-16T13:30:21.922Z,102347.25
2019-04-16T13:32:51.335Z,102352.13
2019-04-16T13:35:20.827Z,102338.37
2019-04-16T13:37:50.291Z,102347.12
2019-04-16T13:40:20.192Z,102350.16
2019-04-16T13:42:50.927Z,102348.97
2019-04-16T13:45:27.733Z,102343.27
2019-04-16T13:47:57.314Z,102348.34
2019-04-16T13:50:53.461Z,102347.05
2019-04-16T13:53:50.719Z,102339.98
2019-04-16T13:56:50.363Z,102348.02
2019-04-16T13:59:34.343Z,102340.28
2019-04-16T14:02:25.655Z,102336.96
2019-04-16T14:04:55.107Z,102344.19
2019-04-16T14:07:25.521Z,102345.53
2019-04-16T14:09:54.935Z,102345.50
2019-04-16T14:12:41.226Z,102351.75
2019-04-16T14:14:56.440Z,102341.33
2019-04-16T14:17:26.896Z,102337.63
2019-04-16T14:19:56.554Z,102343.68
2019-04-16T14:22:29.208Z,102339.78
2019-04-16T14:24:58.607Z,102338.64
2019-04-16T14:27:30.955Z,102341.33
2019-04-16T14:30:00.295Z,102339.85
2019-04-16T14:32:29.750Z,102349.42
2019-04-16T14:35:01.151Z,102351.95
2019-04-16T14:37:32.874Z,102341.87
2019-04-16T14:40:15.540Z,102345.73
2019-04-16T14:42:48.057Z,102341.86
2019-04-16T14:45:50.139Z,102340.02
2019-04-16T14:48:08.612Z,102342.34
2019-04-16T14:50:36.962Z,102338.80
2019-04-16T14:53:08.046Z,102349.39
2019-04-16T14:56:05.271Z,102348.22
2019-04-16T14:58:55.828Z,102347.84
2019-04-16T15:01:35.083Z,102344.36
2019-04-16T15:04:43.801Z,102336.96
2019-04-16T15:07:32.465Z,102334.95
2019-04-16T15:10:19.375Z,102344.72
2019-04-16T15:12:58.760Z,102341.36
2019-04-16T15:15:40.708Z,102351.13
2019-04-16T15:18:40.822Z,102337.66
2019-04-16T15:21:32.498Z,102344.25
2019-04-16T15:24:09.037Z,102358.66
2019-04-16T15:27:00.293Z,102348.41
2019-04-16T15:29:47.282Z,102350.80
2019-04-16T15:32:49.938Z,102355.30
2019-04-16T15:35:24.123Z,102346.92
2019-04-16T15:38:21.759Z,102342.89
2019-04-16T15:40:53.003Z,102342.22
2019-04-16T15:43:40.147Z,102342.72
2019-04-16T15:46:30.336Z,102332.95
2019-04-16T15:49:09.662Z,102336.62
2019-04-16T15:51:48.023Z,102335.57
2019-04-16T15:54:51.234Z,102338.78
2019-04-16T15:57:36.180Z,102327.86
2019-04-16T16:00:28.803Z,102324.23
2019-04-16T16:03:27.200Z,102337.83
2019-04-16T16:06:03.390Z,102338.23
2019-04-16T16:08:38.449Z,102330.41
2019-04-16T16:11:17.383Z,102337.03
2019-04-16T16:13:47.080Z,102332.20
2019-04-16T16:16:18.119Z,102332.20
2019-04-16T16:18:51.002Z,102340.11
2019-04-16T16:21:20.386Z,102330.52
2019-04-16T16:23:49.870Z,102327.36
2019-04-16T16:26:20.049Z,102333.67
2019-04-16T16:28:49.425Z,102329.14
2019-04-16T16:31:18.893Z,102339.72
2019-04-16T16:33:48.344Z,102332.63
2019-04-16T16:36:17.973Z,102340.94
2019-04-16T16:38:48.513Z,102342.23
2019-04-16T16:41:18.816Z,102342.16
2019-04-16T16:43:48.242Z,102346.70
2019-04-16T16:46:38.686Z,102348.98
2019-04-16T16:49:10.187Z,102352.86
2019-04-16T16:51:42.567Z,102352.79
2019-04-16T16:54:19.080Z,102348.59
2019-04-16T16:57:03.584Z,102348.17
2019-04-16T16:59:35.392Z,102348.86
2019-04-16T17:02:24.794Z,102358.70
2019-04-16T17:04:55.013Z,102367.34
2019-04-16T17:07:24.523Z,102365.66
2019-04-16T17:09:55.849Z,102367.76
2019-04-16T17:12:25.309Z,102361.84
2019-04-16T17:14:54.676Z,102363.22
2019-04-16T17:17:24.116Z,102371.28
2019-04-16T17:19:53.730Z,102376.63
2019-04-16T17:22:23.459Z,102380.12
2019-04-16T17:24:52.863Z,102384.88
2019-04-16T17:27:22.327Z,102385.27
2019-04-16T17:29:51.717Z,102387.65
2019-04-16T17:32:21.309Z,102393.52
2019-04-16T17:34:50.916Z,102387.99
2019-04-16T17:37:21.443Z,102393.84
2019-04-16T17:39:53.783Z,102398.35
2019-04-16T17:42:48.157Z,102396.20
2019-04-16T17:45:46.228Z,102396.39
2019-04-16T17:48:25.229Z,102395.19
2019-04-16T17:51:13.503Z,102405.39
2019-04-16T17:54:05.020Z,102402.16
2019-04-16T17:57:02.488Z,102394.42
2019-04-16T17:59:42.072Z,102404.12
2019-04-16T18:02:41.678Z,102414.42
2019-04-16T18:05:30.322Z,102412.12
2019-04-16T18:08:30.589Z,102418.88
2019-04-16T18:11:11.184Z,102424.75
2019-04-16T18:13:56.718Z,102429.97
2019-04-16T18:16:36.210Z,102427.20
2019-04-16T18:19:24.945Z,102437.84
2019-04-16T18:22:16.993Z,102435.73
2019-04-16T18:25:14.704Z,102440.03
2019-04-16T18:28:05.434Z,102443.83
2019-04-16T18:30:50.121Z,102444.59
2019-04-16T18:33:43.228Z,102447.17
2019-04-16T18:36:43.788Z,102451.30
2019-04-16T18:39:37.142Z,102455.91
2019-04-16T18:42:15.862Z,102458.30
2019-04-16T18:45:07.438Z,102458.73
2019-04-16T18:48:01.401Z,102464.27
2019-04-16T18:51:15.724Z,102467.94
2019-04-16T18:53:45.299Z,102474.34
2019-04-16T18:56:14.797Z,102478.88
2019-04-16T18:58:44.192Z,102474.84
2019-04-16T19:01:17.574Z,102482.02
2019-04-16T19:03:47.253Z,102487.37
2019-04-16T19:06:17.097Z,102491.06
2019-04-16T19:08:46.479Z,102491.92
2019-04-16T19:11:16.295Z,102491.61
2019-04-16T19:13:45.893Z,102493.94
2019-04-16T19:16:15.512Z,102497.97
2019-04-16T19:18:45.062Z,102488.55
2019-04-16T19:21:18.212Z,102500.89
2019-04-16T19:23:47.839Z,102505.02
2019-04-16T19:26:17.734Z,102501.31
2019-04-16T19:28:47.822Z,102508.81
2019-04-16T19:31:22.769Z,102509.83
2019-04-16T19:33:48.524Z,102515.64
2019-04-16T19:36:27.537Z,102517.13
2019-04-16T19:38:55.717Z,102514.10
2019-04-16T19:41:25.096Z,102522.48
2019-04-16T19:43:54.708Z,102529.61
2019-04-16T19:46:24.131Z,102533.39
2019-04-16T19:48:56.753Z,102533.14
2019-04-16T19:51:25.784Z,102534.13
2019-04-16T19:53:56.063Z,102525.92
2019-04-16T19:56:25.476Z,102535.10
2019-04-16T19:58:54.880Z,102528.34
2019-04-16T20:01:24.284Z,102534.63
2019-04-16T20:03:53.694Z,102529.05
2019-04-16T20:06:26.163Z,102531.13
2019-04-16T20:08:54.396Z,102534.98
2019-04-16T20:11:23.993Z,102533.40
2019-04-16T20:13:53.653Z,102538.36
2019-04-16T20:16:23.146Z,102535.31
2019-04-16T20:18:52.540Z,102543.23
2019-04-16T20:21:22.160Z,102536.71
2019-04-16T20:23:51.534Z,102542.84
2019-04-16T20:26:21.051Z,102534.16
2019-04-16T20:28:50.482Z,102537.03
2019-04-16T20:31:27.001Z,102537.52
2019-04-16T20:33:56.458Z,102542.80
2019-04-16T20:36:25.863Z,102547.11
2019-04-16T20:38:55.522Z,102546.75
2019-04-16T20:41:25.268Z,102550.95
2019-04-16T20:43:54.630Z,102552.61
2019-04-16T20:46:46.060Z,102552.56
2019-04-16T20:49:16.878Z,102552.56
2019-04-16T20:51:51.589Z,102550.64
2019-04-16T20:54:21.832Z,102556.06
2019-04-16T20:56:53.227Z,102556.39
2019-04-16T20:59:22.357Z,102559.73
2019-04-16T21:01:51.718Z,102561.42
2019-04-16T21:04:21.073Z,102563.81
2019-04-16T21:06:50.498Z,102568.01
2019-04-16T21:09:20.107Z,102569.64
2019-04-16T21:11:52.590Z,102569.64
2019-04-16T21:14:21.814Z,102564.19
2019-04-16T21:16:52.031Z,102564.77
2019-04-16T21:19:23.694Z,102568.48
2019-04-16T21:21:56.421Z,102573.08
2019-04-16T21:24:26.101Z,102570.42
2019-04-16T21:26:55.488Z,102572.34
2019-04-16T21:29:33.570Z,102570.86
2019-04-16T21:32:02.649Z,102571.55
2019-04-16T21:34:38.733Z,102571.55
2019-04-16T21:37:27.044Z,102571.89
2019-04-16T21:39:59.006Z,102568.61
2019-04-16T21:42:28.392Z,102568.71
2019-04-16T21:44:58.084Z,102573.64
2019-04-16T21:47:27.537Z,102572.90
2019-04-16T21:49:56.950Z,102581.91
2019-04-16T21:52:26.412Z,102576.84
2019-04-16T21:54:56.565Z,102576.20
2019-04-16T21:57:25.931Z,102574.14
2019-04-16T21:59:58.150Z,102584.84
2019-04-16T22:02:34.501Z,102585.56
2019-04-16T22:05:02.988Z,102585.66
2019-04-16T22:07:32.410Z,102584.07
2019-04-16T22:10:02.153Z,102589.27
2019-04-16T22:12:31.699Z,102582.27
2019-04-16T22:15:02.535Z,102591.92
2019-04-16T22:17:35.547Z,102587.36
2019-04-16T22:20:04.514Z,102588.21
2019-04-16T22:22:34.013Z,102584.23
2019-04-16T22:25:03.401Z,102586.37
2019-04-16T22:27:32.776Z,102594.59
2019-04-16T22:30:02.177Z,102591.73
2019-04-16T22:32:31.762Z,102582.25
2019-04-16T22:35:01.152Z,102584.70
2019-04-16T22:37:30.524Z,102590.13
2019-04-16T22:40:13.511Z,102592.30
2019-04-16T22:43:06.867Z,102587.74
2019-04-16T22:45:53.440Z,102597.29
2019-04-16T22:48:22.882Z,102587.42
2019-04-16T22:50:52.262Z,102590.58
2019-04-16T22:53:21.893Z,102589.41
2019-04-16T22:55:56.379Z,102592.70
2019-04-16T22:58:24.802Z,102594.66
2019-04-16T23:00:58.400Z,102593.67
2019-04-16T23:03:27.752Z,102591.18
2019-04-16T23:05:57.172Z,102593.25
2019-04-16T23:08:26.738Z,102597.12
2019-04-16T23:10:56.111Z,102595.31
2019-04-16T23:13:25.564Z,102594.20
2019-04-16T23:15:54.993Z,102594.20
2019-04-16T23:18:24.427Z,102598.19
2019-04-16T23:20:53.851Z,102594.52
2019-04-16T23:23:34.418Z,102597.53
2019-04-16T23:26:03.823Z,102599.48
2019-04-16T23:28:43.456Z,102599.48
2019-04-16T23:31:14.411Z,102590.05
2019-04-16T23:33:43.871Z,102587.88
2019-04-16T23:36:16.558Z,102592.17
2019-04-16T23:38:44.477Z,102592.17
2019-04-16T23:41:16.625Z,102590.58
2019-04-16T23:44:00.303Z,102587.33
2019-04-16T23:46:54.745Z,102590.45
2019-04-16T23:49:55.079Z,102592.01
2019-04-16T23:52:31.874Z,102584.48
2019-04-16T23:55:06.711Z,102588.38
2019-04-16T23:57:56.788Z,102588.90
